createdAt,value
2023-12-15T00:00:40.021Z,7.10
2023-12-15T00:03:28.646Z,6.80
2023-12-15T00:05:59.297Z,7.50
2023-12-15T00:08:27.793Z,7.20
2023-12-15T00:10:56.276Z,6.70
2023-12-15T00:13:25.736Z,7.70
2023-12-15T00:15:55.139Z,7.80
2023-12-15T00:18:23.691Z,7.80
2023-12-15T00:20:52.420Z,7.40
2023-12-15T00:23:21.640Z,6.60
2023-12-15T00:25:50.354Z,6.40
2023-12-15T00:28:18.973Z,5.40
2023-12-15T00:30:47.503Z,5.40
2023-12-15T00:33:16.203Z,5.90
2023-12-15T00:35:47.635Z,5.60
2023-12-15T00:38:16.133Z,5.50
2023-12-15T00:40:44.671Z,5.70
2023-12-15T00:43:15.116Z,5.60
2023-12-15T00:45:43.613Z,6.10
2023-12-15T00:48:12.226Z,5.50
2023-12-15T00:50:40.954Z,6.60
2023-12-15T00:53:09.465Z,6.50
2023-12-15T00:55:38.732Z,6.70
2023-12-15T00:58:07.319Z,6.60
2023-12-15T01:00:35.866Z,6.60
2023-12-15T01:03:04.611Z,6.40
2023-12-15T01:05:33.321Z,5.70
2023-12-15T01:08:01.849Z,5.80
2023-12-15T01:10:30.449Z,5.00
2023-12-15T01:12:59.039Z,5.20
2023-12-15T01:15:27.619Z,3.90
2023-12-15T01:17:57.717Z,3.60
2023-12-15T01:20:26.718Z,4.20
2023-12-15T01:22:55.332Z,3.60
2023-12-15T01:25:23.908Z,3.50
2023-12-15T01:27:52.493Z,3.80
2023-12-15T01:30:21.130Z,4.00
2023-12-15T01:32:49.711Z,4.20
2023-12-15T01:35:18.290Z,3.90
2023-12-15T01:37:46.828Z,4.20
2023-12-15T01:40:15.824Z,4.00
2023-12-15T01:42:44.300Z,4.50
2023-12-15T01:45:12.796Z,4.10
2023-12-15T01:47:41.871Z,4.00
2023-12-15T01:50:10.824Z,4.10
2023-12-15T01:52:39.837Z,3.60
2023-12-15T01:55:08.765Z,3.20
2023-12-15T01:57:37.597Z,3.70
2023-12-15T02:00:08.866Z,3.70
2023-12-15T02:02:40.484Z,3.70
2023-12-15T02:05:09.508Z,3.90
2023-12-15T02:07:38.525Z,3.90
2023-12-15T02:10:07.737Z,4.60
2023-12-15T02:12:36.220Z,4.20
2023-12-15T02:15:05.314Z,4.30
2023-12-15T02:17:34.012Z,4.50
2023-12-15T02:20:02.767Z,4.90
2023-12-15T02:22:31.383Z,5.60
2023-12-15T02:25:00.003Z,5.80
2023-12-15T02:27:28.598Z,5.50
2023-12-15T02:29:57.002Z,6.20
2023-12-15T02:32:25.449Z,7.20
2023-12-15T02:34:54.132Z,6.70
2023-12-15T02:37:22.581Z,6.60
2023-12-15T02:39:51.069Z,6.70
2023-12-15T02:42:19.547Z,7.10
2023-12-15T02:44:48.037Z,6.60
2023-12-15T02:47:16.556Z,6.80
2023-12-15T02:49:45.097Z,6.50
2023-12-15T02:52:13.681Z,6.40
2023-12-15T02:54:42.061Z,5.80
2023-12-15T02:57:10.538Z,6.20
2023-12-15T02:59:41.281Z,6.10
2023-12-15T03:02:09.900Z,6.30
2023-12-15T03:04:38.443Z,6.50
2023-12-15T03:07:07.031Z,5.70
2023-12-15T03:09:35.509Z,6.00
2023-12-15T03:12:04.413Z,5.80
2023-12-15T03:14:32.942Z,6.10
2023-12-15T03:17:01.880Z,6.40
2023-12-15T03:19:30.486Z,6.50
2023-12-15T03:21:59.053Z,5.80
2023-12-15T03:24:27.753Z,6.80
2023-12-15T03:26:56.121Z,5.90
2023-12-15T03:29:24.565Z,6.80
2023-12-15T03:31:53.130Z,6.80
2023-12-15T03:34:21.503Z,5.40
2023-12-15T03:36:49.942Z,6.30
2023-12-15T03:39:18.424Z,6.50
2023-12-15T03:41:46.905Z,5.60
2023-12-15T03:44:15.376Z,5.50
2023-12-15T03:46:43.878Z,4.60
2023-12-15T03:49:12.530Z,5.20
2023-12-15T03:51:41.243Z,5.50
2023-12-15T03:54:09.730Z,5.50
2023-12-15T03:56:38.209Z,4.60
2023-12-15T03:59:07.352Z,4.50
2023-12-15T04:01:35.785Z,5.00
2023-12-15T04:04:04.691Z,4.50
2023-12-15T04:06:33.187Z,4.50
2023-12-15T04:09:01.543Z,4.20
2023-12-15T04:11:30.082Z,4.90
2023-12-15T04:13:58.948Z,4.60
2023-12-15T04:16:27.509Z,4.40
2023-12-15T04:18:56.350Z,4.90
2023-12-15T04:21:24.880Z,5.70
2023-12-15T04:23:53.677Z,4.90
2023-12-15T04:26:22.268Z,4.80
2023-12-15T04:28:50.742Z,4.90
2023-12-15T04:31:19.214Z,4.80
2023-12-15T04:33:47.615Z,5.10
2023-12-15T04:36:20.752Z,5.40
2023-12-15T04:38:49.262Z,5.10
2023-12-15T04:41:21.955Z,5.30
2023-12-15T04:43:50.761Z,8.50
2023-12-15T04:46:27.514Z,8.20
2023-12-15T04:48:58.676Z,6.10
2023-12-15T04:51:27.770Z,5.70
2023-12-15T04:53:56.340Z,4.70
2023-12-15T04:56:26.946Z,7.40
2023-12-15T04:58:55.696Z,8.40
2023-12-15T05:01:26.839Z,5.00
2023-12-15T05:03:55.545Z,4.80
2023-12-15T05:06:24.704Z,4.70
2023-12-15T05:08:53.731Z,4.00
2023-12-15T05:11:22.468Z,4.60
2023-12-15T05:13:50.957Z,4.20
2023-12-15T05:16:19.430Z,4.90
2023-12-15T05:18:47.915Z,4.80
2023-12-15T05:21:16.514Z,6.70
2023-12-15T05:23:45.000Z,5.50
2023-12-15T05:26:14.022Z,4.80
2023-12-15T05:28:42.571Z,5.10
2023-12-15T05:31:10.949Z,4.60
2023-12-15T05:33:39.545Z,5.00
2023-12-15T05:36:10.154Z,5.10
2023-12-15T05:38:40.987Z,4.80
2023-12-15T05:41:09.421Z,5.70
2023-12-15T05:43:38.068Z,4.80
2023-12-15T05:46:06.858Z,5.50
2023-12-15T05:48:35.601Z,5.40
2023-12-15T05:51:05.925Z,5.90
2023-12-15T05:53:42.411Z,6.40
2023-12-15T05:56:16.501Z,6.20
2023-12-15T05:58:45.600Z,6.10
2023-12-15T06:01:14.183Z,5.70
2023-12-15T06:03:43.312Z,5.90
2023-12-15T06:06:15.484Z,6.30
2023-12-15T06:08:44.296Z,5.80
2023-12-15T06:11:12.903Z,5.70
2023-12-15T06:13:43.344Z,5.90
2023-12-15T06:16:21.732Z,6.00
2023-12-15T06:18:50.596Z,5.50
2023-12-15T06:21:23.808Z,6.10
2023-12-15T06:23:52.947Z,5.30
2023-12-15T06:26:24.497Z,4.90
2023-12-15T06:28:57.415Z,5.40
2023-12-15T06:31:28.848Z,5.20
2023-12-15T06:33:57.728Z,4.80
2023-12-15T06:36:30.791Z,5.00
2023-12-15T06:38:59.767Z,5.50
2023-12-15T06:41:28.827Z,4.70
2023-12-15T06:43:57.401Z,6.00
2023-12-15T06:46:26.543Z,5.20
2023-12-15T06:48:55.220Z,5.90
2023-12-15T06:51:23.778Z,5.20
2023-12-15T06:53:52.094Z,5.80
2023-12-15T06:56:20.469Z,5.60
2023-12-15T06:58:48.897Z,6.30
2023-12-15T07:01:17.343Z,6.40
2023-12-15T07:03:45.964Z,7.10
2023-12-15T07:06:14.555Z,8.30
2023-12-15T07:08:43.520Z,8.80
2023-12-15T07:11:12.220Z,9.10
2023-12-15T07:13:40.978Z,10.80
2023-12-15T07:16:11.591Z,13.10
2023-12-15T07:18:41.086Z,11.60
2023-12-15T07:21:09.664Z,10.60
2023-12-15T07:23:39.196Z,11.40
2023-12-15T07:26:07.739Z,11.10
2023-12-15T07:28:37.210Z,12.00
2023-12-15T07:31:08.872Z,11.30
2023-12-15T07:33:38.852Z,14.70
2023-12-15T07:36:08.353Z,11.10
2023-12-15T07:38:36.998Z,11.40
2023-12-15T07:41:07.726Z,10.70
2023-12-15T07:43:39.297Z,8.70
2023-12-15T07:46:18.426Z,5.40
2023-12-15T07:48:47.297Z,5.70
2023-12-15T07:51:21.912Z,4.90
2023-12-15T07:53:50.392Z,6.30
2023-12-15T07:56:22.238Z,10.00
2023-12-15T07:58:52.154Z,10.50
2023-12-15T08:01:21.968Z,12.40
2023-12-15T08:03:51.534Z,11.50
2023-12-15T08:06:20.637Z,12.20
2023-12-15T08:08:50.276Z,11.30
2023-12-15T08:11:18.812Z,8.90
2023-12-15T08:13:47.976Z,8.00
2023-12-15T08:16:16.639Z,9.30
2023-12-15T08:18:45.577Z,8.20
2023-12-15T08:21:14.357Z,7.20
2023-12-15T08:23:43.629Z,9.90
2023-12-15T08:26:22.257Z,8.40
2023-12-15T08:28:51.265Z,8.80
2023-12-15T08:31:19.643Z,8.80
2023-12-15T08:33:48.313Z,9.00
2023-12-15T08:36:17.006Z,10.50
2023-12-15T08:38:45.491Z,10.50
2023-12-15T08:41:14.823Z,10.40
2023-12-15T08:43:43.475Z,11.30
2023-12-15T08:46:11.962Z,9.70
2023-12-15T08:48:40.664Z,9.60
2023-12-15T08:51:09.389Z,10.80
2023-12-15T08:53:38.077Z,11.30
2023-12-15T08:56:06.662Z,12.10
2023-12-15T08:58:35.188Z,11.70
2023-12-15T09:01:05.407Z,11.40
2023-12-15T09:03:34.239Z,9.60
2023-12-15T09:08:34.472Z,11.40
2023-12-15T09:11:03.200Z,10.00
2023-12-15T09:13:31.921Z,8.70
2023-12-15T09:16:00.498Z,7.00
2023-12-15T09:18:29.363Z,7.20
2023-12-15T09:20:58.353Z,7.20
2023-12-15T09:23:26.906Z,5.00
2023-12-15T09:25:55.454Z,5.50
2023-12-15T09:28:23.833Z,5.90
2023-12-15T09:30:52.424Z,6.20
2023-12-15T09:33:21.402Z,6.70
2023-12-15T09:35:55.175Z,4.40
2023-12-15T09:38:23.647Z,5.30
2023-12-15T09:40:52.192Z,5.00
2023-12-15T09:43:20.561Z,9.90
2023-12-15T09:45:49.175Z,6.40
2023-12-15T09:48:20.835Z,10.70
2023-12-15T09:50:55.502Z,5.30
2023-12-15T09:53:25.535Z,5.50
2023-12-15T09:55:54.813Z,5.70
2023-12-15T09:58:23.336Z,4.70
2023-12-15T10:00:52.449Z,3.50
2023-12-15T10:03:21.075Z,3.90
2023-12-15T10:05:51.760Z,3.40
2023-12-15T10:08:25.686Z,2.80
2023-12-15T10:10:54.762Z,1.80
2023-12-15T10:13:23.176Z,1.50
2023-12-15T10:15:54.773Z,1.60
2023-12-15T10:18:32.224Z,2.50
2023-12-15T10:21:08.153Z,2.60
2023-12-15T10:23:36.858Z,2.90
2023-12-15T10:26:06.789Z,3.00
2023-12-15T10:28:40.350Z,3.70
2023-12-15T10:31:10.075Z,3.20
2023-12-15T10:33:38.648Z,3.60
2023-12-15T10:36:08.909Z,3.60
2023-12-15T10:38:37.531Z,4.00
2023-12-15T10:41:08.916Z,3.80
2023-12-15T10:43:39.770Z,3.90
2023-12-15T10:46:10.813Z,4.10
2023-12-15T10:48:41.477Z,3.40
2023-12-15T10:51:11.212Z,3.90
2023-12-15T10:53:42.394Z,3.20
2023-12-15T10:56:11.149Z,2.90
2023-12-15T10:58:40.473Z,3.30
2023-12-15T11:01:10.992Z,3.00
2023-12-15T11:03:40.659Z,3.40
2023-12-15T11:06:10.435Z,3.60
2023-12-15T11:08:39.331Z,3.70
2023-12-15T11:11:11.560Z,4.00
2023-12-15T11:14:03.011Z,3.50
2023-12-15T11:16:37.155Z,3.90
2023-12-15T11:19:06.017Z,3.90
2023-12-15T11:21:35.568Z,3.90
2023-12-15T11:24:06.454Z,4.00
2023-12-15T11:26:39.301Z,3.90
2023-12-15T11:29:12.709Z,4.30
2023-12-15T11:31:43.981Z,5.00
2023-12-15T11:34:38.662Z,4.30
2023-12-15T11:37:08.085Z,4.10
2023-12-15T11:39:37.713Z,5.20
2023-12-15T11:42:06.788Z,4.70
2023-12-15T11:44:35.659Z,4.90
2023-12-15T11:47:06.906Z,4.90
2023-12-15T11:49:35.420Z,4.50
2023-12-15T11:52:09.853Z,4.90
2023-12-15T11:54:39.447Z,4.80
2023-12-15T11:57:08.035Z,4.70
2023-12-15T11:59:39.537Z,5.00
2023-12-15T12:02:08.195Z,5.00
2023-12-15T12:04:37.125Z,5.50
2023-12-15T12:07:05.951Z,4.80
2023-12-15T12:09:34.538Z,5.50
2023-12-15T12:12:03.091Z,4.50
2023-12-15T12:14:32.061Z,5.20
2023-12-15T12:17:00.628Z,6.30
2023-12-15T12:19:33.071Z,5.60
2023-12-15T12:22:01.454Z,5.80
2023-12-15T12:24:30.765Z,5.80
2023-12-15T12:27:00.177Z,5.90
2023-12-15T12:29:32.674Z,5.40
2023-12-15T12:32:01.175Z,5.90
2023-12-15T12:34:29.752Z,5.80
2023-12-15T12:36:58.394Z,6.00
2023-12-15T12:39:28.812Z,5.20
2023-12-15T12:41:57.375Z,5.30
2023-12-15T12:44:26.855Z,5.60
2023-12-15T12:46:55.390Z,5.70
2023-12-15T12:49:24.204Z,5.60
2023-12-15T12:51:53.418Z,5.60
2023-12-15T12:54:21.852Z,5.80
2023-12-15T12:56:59.854Z,6.50
2023-12-15T12:59:29.520Z,6.00
2023-12-15T13:02:07.384Z,6.60
2023-12-15T13:04:44.455Z,6.80
2023-12-15T13:07:13.085Z,6.70
2023-12-15T13:09:41.631Z,7.00
2023-12-15T13:12:14.632Z,6.60
2023-12-15T13:14:43.352Z,6.10
2023-12-15T13:17:12.469Z,6.90
2023-12-15T13:19:41.512Z,5.60
2023-12-15T13:22:10.090Z,6.30
2023-12-15T13:24:46.702Z,6.20
2023-12-15T13:27:23.529Z,6.60
2023-12-15T13:29:52.453Z,6.60
2023-12-15T13:32:21.173Z,6.50
2023-12-15T13:34:52.165Z,7.20
2023-12-15T13:37:21.361Z,6.10
2023-12-15T13:39:49.959Z,6.60
2023-12-15T13:42:20.183Z,5.90
2023-12-15T13:44:50.288Z,6.00
2023-12-15T13:47:18.950Z,5.80
2023-12-15T13:49:47.560Z,5.40
2023-12-15T13:52:16.164Z,5.40
2023-12-15T13:54:45.754Z,5.90
2023-12-15T13:57:14.556Z,5.50
2023-12-15T13:59:43.580Z,6.00
2023-12-15T14:02:12.180Z,6.10
2023-12-15T14:04:41.205Z,5.90
2023-12-15T14:07:09.804Z,6.20
2023-12-15T14:09:39.091Z,6.60
2023-12-15T14:12:07.646Z,6.40
2023-12-15T14:14:36.148Z,7.60
2023-12-15T14:17:07.708Z,6.70
2023-12-15T14:19:38.290Z,7.70
2023-12-15T14:22:08.669Z,8.50
2023-12-15T14:24:37.563Z,8.50
2023-12-15T14:27:06.189Z,7.90
2023-12-15T14:29:34.891Z,6.70
2023-12-15T14:32:03.881Z,7.90
2023-12-15T14:34:32.568Z,8.40
2023-12-15T14:37:01.423Z,8.20
2023-12-15T14:39:29.888Z,8.60
2023-12-15T14:41:58.634Z,9.00
2023-12-15T14:44:27.187Z,8.60
2023-12-15T14:46:55.961Z,8.70
2023-12-15T14:49:24.547Z,7.80
2023-12-15T14:51:53.120Z,8.00
2023-12-15T14:54:21.605Z,7.20
2023-12-15T14:56:52.933Z,7.20
2023-12-15T14:59:21.691Z,8.80
2023-12-15T15:01:50.235Z,8.10
2023-12-15T15:04:22.811Z,7.90
2023-12-15T15:06:52.053Z,7.50
2023-12-15T15:09:24.061Z,7.50
2023-12-15T15:11:52.690Z,8.20
2023-12-15T15:14:21.381Z,8.20
2023-12-15T15:16:49.922Z,9.10
2023-12-15T15:19:18.680Z,8.90
2023-12-15T15:21:47.183Z,8.80
2023-12-15T15:24:15.789Z,9.30
2023-12-15T15:26:44.300Z,8.40
2023-12-15T15:29:13.009Z,9.50
2023-12-15T15:31:42.341Z,9.40
2023-12-15T15:34:10.871Z,9.20
2023-12-15T15:36:39.677Z,9.90
2023-12-15T15:39:08.418Z,11.20
2023-12-15T15:41:37.107Z,9.90
2023-12-15T15:44:10.993Z,9.60
2023-12-15T15:46:43.597Z,9.50
2023-12-15T15:49:12.095Z,9.60
2023-12-15T15:51:40.907Z,9.10
2023-12-15T15:54:16.354Z,9.20
2023-12-15T15:56:48.120Z,9.40
2023-12-15T15:59:16.648Z,9.10
2023-12-15T16:01:45.398Z,9.80
2023-12-15T16:04:14.154Z,9.30
2023-12-15T16:06:42.981Z,8.30
2023-12-15T16:09:11.725Z,9.10
2023-12-15T16:11:40.390Z,9.20
2023-12-15T16:14:11.499Z,9.20
2023-12-15T16:16:41.411Z,9.10
2023-12-15T16:19:10.898Z,9.30
2023-12-15T16:21:39.624Z,8.80
2023-12-15T16:24:09.972Z,9.50
2023-12-15T16:26:39.515Z,9.80
2023-12-15T16:29:09.134Z,9.90
2023-12-15T16:31:37.899Z,8.90
2023-12-15T16:34:06.829Z,8.30
2023-12-15T16:36:35.925Z,7.80
2023-12-15T16:39:04.555Z,7.70
2023-12-15T16:41:33.628Z,7.70
2023-12-15T16:44:02.322Z,7.10
2023-12-15T16:46:30.916Z,7.10
2023-12-15T16:48:59.735Z,7.40
2023-12-15T16:51:37.400Z,7.50
2023-12-15T16:54:06.422Z,7.20
2023-12-15T16:56:34.837Z,8.60
2023-12-15T16:59:03.384Z,8.70
2023-12-15T17:01:32.003Z,8.50
2023-12-15T17:04:00.563Z,8.30
2023-12-15T17:06:29.339Z,11.20
2023-12-15T17:08:57.906Z,10.60
2023-12-15T17:11:26.395Z,9.40
2023-12-15T17:13:54.981Z,8.70
2023-12-15T17:16:23.557Z,9.70
2023-12-15T17:18:52.734Z,8.60
2023-12-15T17:21:21.446Z,8.60
2023-12-15T17:23:51.796Z,8.90
2023-12-15T17:26:20.364Z,9.20
2023-12-15T17:28:50.475Z,10.60
2023-12-15T17:31:19.008Z,9.10
2023-12-15T17:33:47.805Z,9.00
2023-12-15T17:36:16.844Z,8.90
2023-12-15T17:38:45.335Z,9.50
2023-12-15T17:41:21.967Z,9.60
2023-12-15T17:46:26.415Z,8.50
2023-12-15T17:48:55.023Z,8.10
2023-12-15T17:51:23.867Z,7.30
2023-12-15T17:53:52.511Z,7.60
2023-12-15T17:56:21.095Z,6.90
2023-12-15T17:58:49.485Z,8.50
2023-12-15T18:01:18.802Z,8.90
2023-12-15T18:03:47.450Z,7.40
2023-12-15T18:06:16.093Z,7.10
2023-12-15T18:08:46.316Z,7.30
2023-12-15T18:11:25.942Z,6.60
2023-12-15T18:13:56.939Z,5.90
2023-12-15T18:16:25.939Z,6.40
2023-12-15T18:18:56.551Z,6.20
2023-12-15T18:21:27.457Z,5.80
2023-12-15T18:23:56.406Z,6.60
2023-12-15T18:26:24.783Z,6.80
2023-12-15T18:28:53.391Z,5.60
2023-12-15T18:31:23.168Z,4.90
2023-12-15T18:33:53.620Z,5.30
2023-12-15T18:36:22.198Z,5.80
2023-12-15T18:38:50.579Z,6.60
2023-12-15T18:41:19.262Z,6.60
2023-12-15T18:43:47.961Z,6.60
2023-12-15T18:46:17.810Z,6.90
2023-12-15T18:48:46.622Z,6.60
2023-12-15T18:51:19.646Z,6.10
2023-12-15T18:53:48.736Z,6.40
2023-12-15T18:56:19.923Z,6.60
2023-12-15T18:58:50.149Z,6.60
2023-12-15T19:01:20.622Z,7.30
2023-12-15T19:03:49.480Z,6.10
2023-12-15T19:06:24.403Z,5.80
2023-12-15T19:08:53.772Z,5.70
2023-12-15T19:11:31.239Z,5.30
2023-12-15T19:14:00.171Z,5.50
2023-12-15T19:16:31.569Z,5.20
2023-12-15T19:19:00.422Z,4.80
2023-12-15T19:21:29.280Z,6.10
2023-12-15T19:23:57.971Z,5.70
2023-12-15T19:26:28.542Z,5.50
2023-12-15T19:28:59.024Z,6.00
2023-12-15T19:31:28.282Z,5.40
2023-12-15T19:33:57.144Z,5.60
2023-12-15T19:36:25.782Z,6.60
2023-12-15T19:38:54.205Z,6.30
2023-12-15T19:41:23.583Z,6.30
2023-12-15T19:43:52.307Z,6.70
2023-12-15T19:46:26.389Z,6.70
2023-12-15T19:48:54.938Z,6.20
2023-12-15T19:51:24.091Z,6.50
2023-12-15T19:53:52.757Z,5.90
2023-12-15T19:56:27.473Z,5.70
2023-12-15T19:58:57.515Z,6.20
2023-12-15T20:01:28.917Z,5.80
2023-12-15T20:03:58.934Z,5.40
2023-12-15T20:06:32.218Z,4.80
2023-12-15T20:09:01.299Z,5.20
2023-12-15T20:11:29.888Z,5.20
2023-12-15T20:13:58.340Z,5.40
2023-12-15T20:16:26.712Z,5.60
2023-12-15T20:18:55.284Z,5.70
2023-12-15T20:21:24.187Z,6.40
2023-12-15T20:23:52.688Z,7.20
2023-12-15T20:26:21.272Z,6.40
2023-12-15T20:28:49.740Z,5.90
2023-12-15T20:31:18.412Z,8.00
2023-12-15T20:33:47.305Z,6.40
2023-12-15T20:36:20.354Z,6.10
2023-12-15T20:38:49.136Z,6.30
2023-12-15T20:41:20.727Z,5.30
2023-12-15T20:43:50.516Z,4.70
2023-12-15T20:46:19.584Z,6.40
2023-12-15T20:48:49.319Z,5.30
2023-12-15T20:51:23.235Z,5.30
2023-12-15T20:53:52.303Z,5.80
2023-12-15T20:56:27.558Z,5.70
2023-12-15T20:58:56.704Z,4.80
2023-12-15T21:01:25.956Z,5.40
2023-12-15T21:03:55.367Z,4.50
2023-12-15T21:06:25.504Z,5.20
2023-12-15T21:08:54.100Z,5.40
2023-12-15T21:11:23.173Z,5.10
2023-12-15T21:13:57.028Z,4.80
2023-12-15T21:16:28.465Z,5.10
2023-12-15T21:18:57.927Z,5.50
2023-12-15T21:21:28.165Z,5.50
2023-12-15T21:23:57.316Z,5.00
2023-12-15T21:26:25.687Z,5.60
2023-12-15T21:28:57.018Z,5.00
2023-12-15T21:31:26.234Z,4.80
2023-12-15T21:33:56.576Z,5.30
2023-12-15T21:36:25.143Z,5.90
2023-12-15T21:38:53.637Z,6.00
2023-12-15T21:41:22.315Z,7.90
2023-12-15T21:43:53.047Z,5.80
2023-12-15T21:46:21.607Z,5.50
2023-12-15T21:48:50.303Z,5.70
2023-12-15T21:51:21.488Z,5.70
2023-12-15T21:53:49.841Z,5.00
2023-12-15T21:56:18.324Z,5.30
2023-12-15T21:58:46.710Z,5.20
2023-12-15T22:01:16.771Z,4.70
2023-12-15T22:03:50.156Z,6.10
2023-12-15T22:06:23.320Z,5.30
2023-12-15T22:08:52.278Z,6.00
2023-12-15T22:11:20.914Z,6.20
2023-12-15T22:13:49.424Z,5.80
2023-12-15T22:16:18.020Z,5.90
2023-12-15T22:18:46.984Z,5.80
2023-12-15T22:21:15.544Z,5.60
2023-12-15T22:23:45.114Z,5.40
2023-12-15T22:26:14.514Z,5.50
2023-12-15T22:28:43.115Z,5.10
2023-12-15T22:31:11.656Z,5.90
2023-12-15T22:33:40.599Z,6.00
2023-12-15T22:36:09.407Z,5.60
2023-12-15T22:38:40.240Z,5.50
2023-12-15T22:41:13.794Z,5.00
2023-12-15T22:43:45.610Z,5.20
2023-12-15T22:46:14.117Z,5.20
2023-12-15T22:48:43.325Z,5.00
2023-12-15T22:51:12.002Z,5.20
2023-12-15T22:53:40.551Z,5.40
2023-12-15T22:56:12.721Z,5.50
2023-12-15T22:58:41.417Z,4.90
2023-12-15T23:01:11.056Z,5.20
2023-12-15T23:03:40.123Z,4.80
2023-12-15T23:06:09.199Z,4.70
2023-12-15T23:08:38.061Z,4.60
2023-12-15T23:11:06.794Z,4.60
2023-12-15T23:13:35.993Z,3.90
2023-12-15T23:16:05.016Z,4.10
2023-12-15T23:18:34.040Z,3.60
2023-12-15T23:21:12.339Z,4.30
2023-12-15T23:23:44.573Z,3.90
2023-12-15T23:26:13.070Z,4.30
2023-12-15T23:28:41.650Z,4.60
2023-12-15T23:31:10.920Z,4.20
2023-12-15T23:33:39.571Z,3.70
2023-12-15T23:36:14.760Z,3.30
2023-12-15T23:38:43.465Z,3.10
2023-12-15T23:41:12.481Z,3.60
2023-12-15T23:43:40.927Z,3.30
2023-12-15T23:46:09.649Z,3.30
2023-12-15T23:48:38.538Z,2.90
2023-12-15T23:51:08.679Z,3.00
2023-12-15T23:53:37.205Z,2.80
2023-12-15T23:56:06.228Z,2.80
2023-12-15T23:58:34.681Z,2.50
